sensor_id;sensor_type;location;lat;lon;timestamp;P1;durP1;ratioP1;P2;durP2;ratioP2
83682;SDS011;73663;51.298;5.802;2024-02-14T00:01:27;5.25;;;1.90;;
83682;SDS011;73663;51.298;5.802;2024-02-14T00:06:37;3.53;;;2.20;;
83682;SDS011;73663;51.298;5.802;2024-02-14T00:11:45;4.50;;;1.80;;
83682;SDS011;73663;51.298;5.802;2024-02-14T00:16:52;4.93;;;2.30;;
83682;SDS011;73663;51.298;5.802;2024-02-14T00:22:00;3.67;;;1.90;;
83682;SDS011;73663;51.298;5.802;2024-02-14T00:27:07;3.20;;;1.98;;
83682;SDS011;73663;51.298;5.802;2024-02-14T00:32:15;2.72;;;1.77;;
83682;SDS011;73663;51.298;5.802;2024-02-14T00:37:22;2.33;;;1.77;;
83682;SDS011;73663;51.298;5.802;2024-02-14T00:42:30;3.22;;;2.00;;
83682;SDS011;73663;51.298;5.802;2024-02-14T00:47:37;3.55;;;1.80;;
83682;SDS011;73663;51.298;5.802;2024-02-14T00:52:45;3.58;;;2.10;;
83682;SDS011;73663;51.298;5.802;2024-02-14T00:57:52;3.92;;;2.08;;
83682;SDS011;73663;51.298;5.802;2024-02-14T01:03:00;5.65;;;2.47;;
83682;SDS011;73663;51.298;5.802;2024-02-14T01:08:07;2.88;;;1.50;;
83682;SDS011;73663;51.298;5.802;2024-02-14T01:13:15;2.65;;;1.50;;
83682;SDS011;73663;51.298;5.802;2024-02-14T01:18:22;4.18;;;1.92;;
83682;SDS011;73663;51.298;5.802;2024-02-14T01:23:30;2.78;;;2.00;;
83682;SDS011;73663;51.298;5.802;2024-02-14T01:28:38;5.60;;;2.20;;
83682;SDS011;73663;51.298;5.802;2024-02-14T01:33:45;4.85;;;2.00;;
83682;SDS011;73663;51.298;5.802;2024-02-14T01:38:53;2.55;;;1.83;;
83682;SDS011;73663;51.298;5.802;2024-02-14T01:44:00;11.95;;;2.47;;
83682;SDS011;73663;51.298;5.802;2024-02-14T01:49:08;3.28;;;1.98;;
83682;SDS011;73663;51.298;5.802;2024-02-14T01:54:19;3.13;;;1.77;;
83682;SDS011;73663;51.298;5.802;2024-02-14T01:59:26;1.90;;;1.30;;
83682;SDS011;73663;51.298;5.802;2024-02-14T02:04:35;3.78;;;1.95;;
83682;SDS011;73663;51.298;5.802;2024-02-14T02:09:42;3.13;;;2.00;;
83682;SDS011;73663;51.298;5.802;2024-02-14T02:14:50;2.45;;;1.75;;
83682;SDS011;73663;51.298;5.802;2024-02-14T02:19:57;4.63;;;2.00;;
83682;SDS011;73663;51.298;5.802;2024-02-14T02:25:05;3.25;;;2.28;;
83682;SDS011;73663;51.298;5.802;2024-02-14T02:30:12;4.13;;;2.08;;
83682;SDS011;73663;51.298;5.802;2024-02-14T02:35:20;5.28;;;2.58;;
83682;SDS011;73663;51.298;5.802;2024-02-14T02:40:27;4.00;;;2.13;;
83682;SDS011;73663;51.298;5.802;2024-02-14T02:45:35;3.58;;;2.05;;
83682;SDS011;73663;51.298;5.802;2024-02-14T02:50:42;4.15;;;2.08;;
83682;SDS011;73663;51.298;5.802;2024-02-14T02:55:51;2.28;;;1.92;;
83682;SDS011;73663;51.298;5.802;2024-02-14T03:00:59;6.15;;;2.55;;
83682;SDS011;73663;51.298;5.802;2024-02-14T03:06:06;7.03;;;2.53;;
83682;SDS011;73663;51.298;5.802;2024-02-14T03:11:14;3.70;;;2.38;;
83682;SDS011;73663;51.298;5.802;2024-02-14T03:16:22;3.88;;;2.50;;
83682;SDS011;73663;51.298;5.802;2024-02-14T03:21:29;5.45;;;2.95;;
83682;SDS011;73663;51.298;5.802;2024-02-14T03:26:37;5.50;;;2.33;;
83682;SDS011;73663;51.298;5.802;2024-02-14T03:31:45;5.43;;;2.88;;
83682;SDS011;73663;51.298;5.802;2024-02-14T03:36:53;3.88;;;2.65;;
83682;SDS011;73663;51.298;5.802;2024-02-14T03:42:00;5.35;;;2.47;;
83682;SDS011;73663;51.298;5.802;2024-02-14T03:47:09;4.68;;;2.67;;
83682;SDS011;73663;51.298;5.802;2024-02-14T03:52:17;3.08;;;2.45;;
83682;SDS011;73663;51.298;5.802;2024-02-14T03:57:24;4.60;;;2.38;;
83682;SDS011;73663;51.298;5.802;2024-02-14T04:02:32;7.18;;;2.55;;
83682;SDS011;73663;51.298;5.802;2024-02-14T04:07:39;3.60;;;2.65;;
83682;SDS011;73663;51.298;5.802;2024-02-14T04:12:47;4.97;;;2.65;;
83682;SDS011;73663;51.298;5.802;2024-02-14T04:17:54;5.07;;;3.20;;
83682;SDS011;73663;51.298;5.802;2024-02-14T04:23:02;4.90;;;2.88;;
83682;SDS011;73663;51.298;5.802;2024-02-14T04:28:09;5.05;;;2.80;;
83682;SDS011;73663;51.298;5.802;2024-02-14T04:33:17;5.32;;;2.85;;
83682;SDS011;73663;51.298;5.802;2024-02-14T04:38:24;4.22;;;2.83;;
83682;SDS011;73663;51.298;5.802;2024-02-14T04:43:32;7.30;;;3.42;;
83682;SDS011;73663;51.298;5.802;2024-02-14T04:48:39;6.35;;;3.38;;
83682;SDS011;73663;51.298;5.802;2024-02-14T04:53:46;6.50;;;4.07;;
83682;SDS011;73663;51.298;5.802;2024-02-14T04:58:54;5.85;;;3.90;;
83682;SDS011;73663;51.298;5.802;2024-02-14T05:04:02;6.40;;;4.18;;
83682;SDS011;73663;51.298;5.802;2024-02-14T05:09:09;4.40;;;3.03;;
83682;SDS011;73663;51.298;5.802;2024-02-14T05:14:17;7.13;;;3.67;;
83682;SDS011;73663;51.298;5.802;2024-02-14T05:19:24;8.32;;;4.25;;
83682;SDS011;73663;51.298;5.802;2024-02-14T05:24:32;6.55;;;3.75;;
83682;SDS011;73663;51.298;5.802;2024-02-14T05:29:39;6.32;;;3.42;;
83682;SDS011;73663;51.298;5.802;2024-02-14T05:34:47;7.43;;;4.00;;
83682;SDS011;73663;51.298;5.802;2024-02-14T05:39:54;7.57;;;3.72;;
83682;SDS011;73663;51.298;5.802;2024-02-14T05:45:02;7.82;;;3.90;;
83682;SDS011;73663;51.298;5.802;2024-02-14T05:50:10;8.32;;;3.60;;
83682;SDS011;73663;51.298;5.802;2024-02-14T05:55:17;6.85;;;4.25;;
83682;SDS011;73663;51.298;5.802;2024-02-14T06:00:25;7.70;;;4.47;;
83682;SDS011;73663;51.298;5.802;2024-02-14T06:05:32;8.07;;;4.65;;
83682;SDS011;73663;51.298;5.802;2024-02-14T06:10:40;8.90;;;4.88;;
83682;SDS011;73663;51.298;5.802;2024-02-14T06:15:47;6.55;;;4.15;;
83682;SDS011;73663;51.298;5.802;2024-02-14T06:20:55;6.45;;;4.30;;
83682;SDS011;73663;51.298;5.802;2024-02-14T06:26:02;8.30;;;4.30;;
83682;SDS011;73663;51.298;5.802;2024-02-14T06:31:10;6.97;;;3.72;;
83682;SDS011;73663;51.298;5.802;2024-02-14T06:36:17;6.57;;;3.97;;
83682;SDS011;73663;51.298;5.802;2024-02-14T06:41:25;7.18;;;4.45;;
83682;SDS011;73663;51.298;5.802;2024-02-14T06:46:32;7.53;;;4.35;;
83682;SDS011;73663;51.298;5.802;2024-02-14T06:51:39;9.25;;;4.93;;
83682;SDS011;73663;51.298;5.802;2024-02-14T06:56:47;7.55;;;4.50;;
83682;SDS011;73663;51.298;5.802;2024-02-14T07:01:54;5.50;;;3.42;;
83682;SDS011;73663;51.298;5.802;2024-02-14T07:07:02;11.80;;;4.95;;
83682;SDS011;73663;51.298;5.802;2024-02-14T07:12:09;6.88;;;4.38;;
83682;SDS011;73663;51.298;5.802;2024-02-14T07:17:17;7.97;;;4.97;;
83682;SDS011;73663;51.298;5.802;2024-02-14T07:22:24;7.50;;;4.30;;
83682;SDS011;73663;51.298;5.802;2024-02-14T07:27:32;8.63;;;5.63;;
83682;SDS011;73663;51.298;5.802;2024-02-14T07:32:40;10.88;;;5.13;;
83682;SDS011;73663;51.298;5.802;2024-02-14T07:37:47;10.45;;;5.05;;
83682;SDS011;73663;51.298;5.802;2024-02-14T07:42:55;8.55;;;4.20;;
83682;SDS011;73663;51.298;5.802;2024-02-14T07:48:02;7.43;;;5.10;;
83682;SDS011;73663;51.298;5.802;2024-02-14T07:53:10;12.70;;;4.90;;
83682;SDS011;73663;51.298;5.802;2024-02-14T07:58:18;6.72;;;4.40;;
83682;SDS011;73663;51.298;5.802;2024-02-14T08:03:25;9.18;;;3.83;;
83682;SDS011;73663;51.298;5.802;2024-02-14T08:08:33;8.27;;;4.43;;
83682;SDS011;73663;51.298;5.802;2024-02-14T08:13:41;7.05;;;3.50;;
83682;SDS011;73663;51.298;5.802;2024-02-14T08:18:48;5.38;;;3.80;;
83682;SDS011;73663;51.298;5.802;2024-02-14T08:23:57;4.93;;;3.03;;
83682;SDS011;73663;51.298;5.802;2024-02-14T08:29:04;5.10;;;2.83;;
83682;SDS011;73663;51.298;5.802;2024-02-14T08:34:12;7.57;;;3.75;;
83682;SDS011;73663;51.298;5.802;2024-02-14T08:39:19;6.28;;;2.83;;
83682;SDS011;73663;51.298;5.802;2024-02-14T08:44:27;8.73;;;2.70;;
83682;SDS011;73663;51.298;5.802;2024-02-14T08:49:34;4.07;;;2.60;;
83682;SDS011;73663;51.298;5.802;2024-02-14T08:54:44;5.35;;;3.20;;
83682;SDS011;73663;51.298;5.802;2024-02-14T08:59:52;4.45;;;2.60;;
83682;SDS011;73663;51.298;5.802;2024-02-14T09:04:59;7.50;;;2.40;;
83682;SDS011;73663;51.298;5.802;2024-02-14T09:10:06;4.38;;;2.38;;
83682;SDS011;73663;51.298;5.802;2024-02-14T09:15:15;6.68;;;2.65;;
83682;SDS011;73663;51.298;5.802;2024-02-14T09:20:22;3.65;;;2.72;;
83682;SDS011;73663;51.298;5.802;2024-02-14T09:25:30;5.63;;;2.38;;
83682;SDS011;73663;51.298;5.802;2024-02-14T09:30:37;5.93;;;2.80;;
83682;SDS011;73663;51.298;5.802;2024-02-14T09:35:45;6.03;;;2.78;;
83682;SDS011;73663;51.298;5.802;2024-02-14T09:40:52;6.25;;;3.03;;
83682;SDS011;73663;51.298;5.802;2024-02-14T09:46:02;7.60;;;3.13;;
83682;SDS011;73663;51.298;5.802;2024-02-14T09:51:09;5.30;;;3.25;;
83682;SDS011;73663;51.298;5.802;2024-02-14T09:56:17;5.05;;;2.75;;
83682;SDS011;73663;51.298;5.802;2024-02-14T10:01:25;4.28;;;2.78;;
83682;SDS011;73663;51.298;5.802;2024-02-14T10:06:33;4.97;;;2.40;;
83682;SDS011;73663;51.298;5.802;2024-02-14T10:11:41;7.68;;;3.25;;
83682;SDS011;73663;51.298;5.802;2024-02-14T10:16:48;4.00;;;2.65;;
83682;SDS011;73663;51.298;5.802;2024-02-14T10:21:59;5.03;;;2.03;;
83682;SDS011;73663;51.298;5.802;2024-02-14T10:27:07;4.15;;;2.20;;
83682;SDS011;73663;51.298;5.802;2024-02-14T10:32:18;3.15;;;2.08;;
83682;SDS011;73663;51.298;5.802;2024-02-14T10:37:27;4.90;;;2.28;;
83682;SDS011;73663;51.298;5.802;2024-02-14T10:47:41;4.40;;;2.80;;
83682;SDS011;73663;51.298;5.802;2024-02-14T10:52:50;5.13;;;2.42;;
83682;SDS011;73663;51.298;5.802;2024-02-14T10:58:01;3.58;;;2.20;;
83682;SDS011;73663;51.298;5.802;2024-02-14T11:03:09;3.63;;;2.00;;
83682;SDS011;73663;51.298;5.802;2024-02-14T11:08:18;3.10;;;2.00;;
83682;SDS011;73663;51.298;5.802;2024-02-14T11:13:33;3.97;;;2.03;;
83682;SDS011;73663;51.298;5.802;2024-02-14T11:18:42;3.10;;;1.83;;
83682;SDS011;73663;51.298;5.802;2024-02-14T11:23:56;3.60;;;1.50;;
83682;SDS011;73663;51.298;5.802;2024-02-14T11:29:13;2.83;;;1.90;;
83682;SDS011;73663;51.298;5.802;2024-02-14T11:34:20;2.38;;;1.63;;
83682;SDS011;73663;51.298;5.802;2024-02-14T11:39:28;2.33;;;1.70;;
83682;SDS011;73663;51.298;5.802;2024-02-14T11:44:36;4.10;;;1.98;;
83682;SDS011;73663;51.298;5.802;2024-02-14T11:49:44;2.33;;;1.52;;
83682;SDS011;73663;51.298;5.802;2024-02-14T11:54:53;3.67;;;2.00;;
83682;SDS011;73663;51.298;5.802;2024-02-14T12:00:01;3.53;;;2.08;;
83682;SDS011;73663;51.298;5.802;2024-02-14T12:05:09;4.50;;;1.70;;
83682;SDS011;73663;51.298;5.802;2024-02-14T12:10:16;4.05;;;1.98;;
83682;SDS011;73663;51.298;5.802;2024-02-14T12:15:23;3.60;;;1.85;;
83682;SDS011;73663;51.298;5.802;2024-02-14T12:20:31;2.20;;;1.63;;
83682;SDS011;73663;51.298;5.802;2024-02-14T12:25:38;1.48;;;1.20;;
83682;SDS011;73663;51.298;5.802;2024-02-14T12:30:49;1.95;;;1.40;;
83682;SDS011;73663;51.298;5.802;2024-02-14T12:35:58;3.05;;;1.70;;
83682;SDS011;73663;51.298;5.802;2024-02-14T12:41:06;3.78;;;1.77;;
83682;SDS011;73663;51.298;5.802;2024-02-14T12:46:13;1.65;;;1.25;;
83682;SDS011;73663;51.298;5.802;2024-02-14T12:51:21;3.45;;;1.40;;
83682;SDS011;73663;51.298;5.802;2024-02-14T12:56:30;1.27;;;1.10;;
83682;SDS011;73663;51.298;5.802;2024-02-14T13:01:38;1.58;;;0.85;;
83682;SDS011;73663;51.298;5.802;2024-02-14T13:06:45;1.77;;;1.20;;
83682;SDS011;73663;51.298;5.802;2024-02-14T13:11:53;1.48;;;1.13;;
83682;SDS011;73663;51.298;5.802;2024-02-14T13:17:00;1.23;;;0.88;;
83682;SDS011;73663;51.298;5.802;2024-02-14T13:22:08;1.98;;;0.85;;
83682;SDS011;73663;51.298;5.802;2024-02-14T13:27:16;1.05;;;0.90;;
83682;SDS011;73663;51.298;5.802;2024-02-14T13:32:27;1.10;;;0.73;;
83682;SDS011;73663;51.298;5.802;2024-02-14T13:37:34;3.33;;;1.23;;
83682;SDS011;73663;51.298;5.802;2024-02-14T13:42:42;1.15;;;0.75;;
83682;SDS011;73663;51.298;5.802;2024-02-14T13:47:49;2.15;;;1.08;;
83682;SDS011;73663;51.298;5.802;2024-02-14T13:53:06;2.15;;;0.80;;
83682;SDS011;73663;51.298;5.802;2024-02-14T13:58:14;1.92;;;0.88;;
83682;SDS011;73663;51.298;5.802;2024-02-14T14:03:21;2.00;;;1.00;;
83682;SDS011;73663;51.298;5.802;2024-02-14T14:08:29;2.42;;;1.90;;
83682;SDS011;73663;51.298;5.802;2024-02-14T14:13:36;2.20;;;1.45;;
83682;SDS011;73663;51.298;5.802;2024-02-14T14:18:44;2.38;;;1.17;;
83682;SDS011;73663;51.298;5.802;2024-02-14T14:23:51;1.35;;;1.20;;
83682;SDS011;73663;51.298;5.802;2024-02-14T14:28:59;2.50;;;1.50;;
83682;SDS011;73663;51.298;5.802;2024-02-14T14:34:06;2.75;;;1.50;;
83682;SDS011;73663;51.298;5.802;2024-02-14T14:39:14;2.47;;;1.67;;
83682;SDS011;73663;51.298;5.802;2024-02-14T14:44:21;4.03;;;2.00;;
83682;SDS011;73663;51.298;5.802;2024-02-14T14:49:29;2.40;;;1.88;;
83682;SDS011;73663;51.298;5.802;2024-02-14T14:54:36;4.15;;;2.08;;
83682;SDS011;73663;51.298;5.802;2024-02-14T14:59:44;4.28;;;2.28;;
83682;SDS011;73663;51.298;5.802;2024-02-14T15:04:51;2.90;;;1.65;;
83682;SDS011;73663;51.298;5.802;2024-02-14T15:09:59;2.72;;;1.73;;
83682;SDS011;73663;51.298;5.802;2024-02-14T15:15:06;2.35;;;1.73;;
83682;SDS011;73663;51.298;5.802;2024-02-14T15:20:14;2.80;;;1.95;;
83682;SDS011;73663;51.298;5.802;2024-02-14T15:25:21;2.55;;;1.63;;
83682;SDS011;73663;51.298;5.802;2024-02-14T15:30:29;3.50;;;2.15;;
83682;SDS011;73663;51.298;5.802;2024-02-14T15:35:54;2.17;;;1.63;;
83682;SDS011;73663;51.298;5.802;2024-02-14T15:41:02;2.33;;;1.45;;
83682;SDS011;73663;51.298;5.802;2024-02-14T15:46:09;2.40;;;1.70;;
83682;SDS011;73663;51.298;5.802;2024-02-14T15:51:17;2.28;;;1.50;;
83682;SDS011;73663;51.298;5.802;2024-02-14T15:56:25;2.65;;;1.70;;
83682;SDS011;73663;51.298;5.802;2024-02-14T16:01:33;2.70;;;1.70;;
83682;SDS011;73663;51.298;5.802;2024-02-14T16:06:40;3.47;;;2.10;;
83682;SDS011;73663;51.298;5.802;2024-02-14T16:11:48;2.30;;;1.75;;
83682;SDS011;73663;51.298;5.802;2024-02-14T16:16:55;3.78;;;2.20;;
83682;SDS011;73663;51.298;5.802;2024-02-14T16:22:03;4.28;;;2.03;;
83682;SDS011;73663;51.298;5.802;2024-02-14T16:27:10;3.83;;;2.28;;
83682;SDS011;73663;51.298;5.802;2024-02-14T16:32:18;3.13;;;1.80;;
83682;SDS011;73663;51.298;5.802;2024-02-14T16:37:25;4.13;;;2.53;;
83682;SDS011;73663;51.298;5.802;2024-02-14T16:42:33;4.65;;;2.42;;
83682;SDS011;73663;51.298;5.802;2024-02-14T16:47:40;3.53;;;2.30;;
83682;SDS011;73663;51.298;5.802;2024-02-14T16:52:48;4.45;;;3.25;;
83682;SDS011;73663;51.298;5.802;2024-02-14T16:57:55;4.47;;;2.90;;
83682;SDS011;73663;51.298;5.802;2024-02-14T17:03:03;5.38;;;3.05;;
83682;SDS011;73663;51.298;5.802;2024-02-14T17:08:11;6.25;;;3.17;;
83682;SDS011;73663;51.298;5.802;2024-02-14T17:13:18;4.25;;;3.00;;
83682;SDS011;73663;51.298;5.802;2024-02-14T17:18:26;5.65;;;3.10;;
83682;SDS011;73663;51.298;5.802;2024-02-14T17:23:33;5.03;;;3.15;;
83682;SDS011;73663;51.298;5.802;2024-02-14T17:28:42;6.55;;;3.58;;
83682;SDS011;73663;51.298;5.802;2024-02-14T17:33:49;6.05;;;3.45;;
83682;SDS011;73663;51.298;5.802;2024-02-14T17:38:57;6.22;;;3.42;;
83682;SDS011;73663;51.298;5.802;2024-02-14T17:44:06;5.97;;;2.97;;
83682;SDS011;73663;51.298;5.802;2024-02-14T17:49:14;8.65;;;3.13;;
83682;SDS011;73663;51.298;5.802;2024-02-14T17:54:21;5.05;;;3.13;;
83682;SDS011;73663;51.298;5.802;2024-02-14T17:59:29;4.97;;;3.58;;
83682;SDS011;73663;51.298;5.802;2024-02-14T18:04:37;5.43;;;3.08;;
83682;SDS011;73663;51.298;5.802;2024-02-14T18:09:44;5.95;;;3.30;;
83682;SDS011;73663;51.298;5.802;2024-02-14T18:14:52;5.43;;;3.17;;
83682;SDS011;73663;51.298;5.802;2024-02-14T18:19:59;6.80;;;3.58;;
83682;SDS011;73663;51.298;5.802;2024-02-14T18:25:07;4.10;;;2.97;;
83682;SDS011;73663;51.298;5.802;2024-02-14T18:30:14;5.22;;;3.20;;
83682;SDS011;73663;51.298;5.802;2024-02-14T18:35:22;7.40;;;3.15;;
83682;SDS011;73663;51.298;5.802;2024-02-14T18:40:29;8.32;;;3.58;;
83682;SDS011;73663;51.298;5.802;2024-02-14T18:45:37;5.95;;;3.58;;
83682;SDS011;73663;51.298;5.802;2024-02-14T18:50:44;5.65;;;3.88;;
83682;SDS011;73663;51.298;5.802;2024-02-14T18:55:52;7.60;;;4.35;;
83682;SDS011;73663;51.298;5.802;2024-02-14T19:00:59;5.65;;;3.90;;
83682;SDS011;73663;51.298;5.802;2024-02-14T19:06:07;7.10;;;4.18;;
83682;SDS011;73663;51.298;5.802;2024-02-14T19:11:14;9.20;;;4.75;;
83682;SDS011;73663;51.298;5.802;2024-02-14T19:16:22;7.45;;;4.43;;
83682;SDS011;73663;51.298;5.802;2024-02-14T19:21:29;8.63;;;4.70;;
83682;SDS011;73663;51.298;5.802;2024-02-14T19:26:37;8.30;;;4.85;;
83682;SDS011;73663;51.298;5.802;2024-02-14T19:31:44;7.97;;;4.70;;
83682;SDS011;73663;51.298;5.802;2024-02-14T19:36:52;10.85;;;5.93;;
83682;SDS011;73663;51.298;5.802;2024-02-14T19:41:59;10.82;;;5.82;;
83682;SDS011;73663;51.298;5.802;2024-02-14T19:47:07;10.23;;;5.45;;
83682;SDS011;73663;51.298;5.802;2024-02-14T19:52:14;9.70;;;4.60;;
83682;SDS011;73663;51.298;5.802;2024-02-14T19:57:22;10.95;;;5.40;;
83682;SDS011;73663;51.298;5.802;2024-02-14T20:02:29;10.82;;;5.80;;
83682;SDS011;73663;51.298;5.802;2024-02-14T20:07:37;11.10;;;5.38;;
83682;SDS011;73663;51.298;5.802;2024-02-14T20:12:45;9.98;;;4.88;;
83682;SDS011;73663;51.298;5.802;2024-02-14T20:17:52;8.52;;;4.93;;
83682;SDS011;73663;51.298;5.802;2024-02-14T20:23:00;9.48;;;5.38;;
83682;SDS011;73663;51.298;5.802;2024-02-14T20:28:07;8.32;;;4.72;;
83682;SDS011;73663;51.298;5.802;2024-02-14T20:33:15;9.48;;;5.15;;
83682;SDS011;73663;51.298;5.802;2024-02-14T20:38:22;11.05;;;5.28;;
83682;SDS011;73663;51.298;5.802;2024-02-14T20:43:30;9.68;;;4.78;;
83682;SDS011;73663;51.298;5.802;2024-02-14T20:48:38;9.77;;;4.18;;
83682;SDS011;73663;51.298;5.802;2024-02-14T20:53:45;8.15;;;4.95;;
83682;SDS011;73663;51.298;5.802;2024-02-14T20:58:53;10.52;;;5.07;;
83682;SDS011;73663;51.298;5.802;2024-02-14T21:04:00;9.23;;;4.32;;
83682;SDS011;73663;51.298;5.802;2024-02-14T21:09:08;11.43;;;5.05;;
83682;SDS011;73663;51.298;5.802;2024-02-14T21:14:15;11.27;;;5.30;;
83682;SDS011;73663;51.298;5.802;2024-02-14T21:19:23;12.07;;;5.03;;
83682;SDS011;73663;51.298;5.802;2024-02-14T21:24:30;10.32;;;4.82;;
83682;SDS011;73663;51.298;5.802;2024-02-14T21:29:38;10.48;;;5.53;;
83682;SDS011;73663;51.298;5.802;2024-02-14T21:34:45;11.55;;;4.43;;
83682;SDS011;73663;51.298;5.802;2024-02-14T21:39:53;15.23;;;5.57;;
83682;SDS011;73663;51.298;5.802;2024-02-14T21:45:02;10.00;;;6.03;;
83682;SDS011;73663;51.298;5.802;2024-02-14T21:50:09;12.20;;;6.38;;
83682;SDS011;73663;51.298;5.802;2024-02-14T21:55:17;13.60;;;6.60;;
83682;SDS011;73663;51.298;5.802;2024-02-14T22:00:24;14.50;;;7.15;;
83682;SDS011;73663;51.298;5.802;2024-02-14T22:05:32;15.70;;;6.78;;
83682;SDS011;73663;51.298;5.802;2024-02-14T22:10:39;16.88;;;6.85;;
83682;SDS011;73663;51.298;5.802;2024-02-14T22:15:47;19.63;;;7.82;;
83682;SDS011;73663;51.298;5.802;2024-02-14T22:20:57;17.30;;;7.82;;
83682;SDS011;73663;51.298;5.802;2024-02-14T22:26:05;16.88;;;8.10;;
83682;SDS011;73663;51.298;5.802;2024-02-14T22:31:12;17.67;;;7.47;;
83682;SDS011;73663;51.298;5.802;2024-02-14T22:36:20;15.80;;;7.75;;
83682;SDS011;73663;51.298;5.802;2024-02-14T22:41:27;18.20;;;8.10;;
83682;SDS011;73663;51.298;5.802;2024-02-14T22:46:35;13.98;;;5.90;;
83682;SDS011;73663;51.298;5.802;2024-02-14T22:51:42;16.17;;;6.65;;
83682;SDS011;73663;51.298;5.802;2024-02-14T22:56:50;15.98;;;7.03;;
83682;SDS011;73663;51.298;5.802;2024-02-14T23:01:57;20.55;;;7.50;;
83682;SDS011;73663;51.298;5.802;2024-02-14T23:07:05;15.07;;;6.35;;
83682;SDS011;73663;51.298;5.802;2024-02-14T23:12:13;11.02;;;6.03;;
83682;SDS011;73663;51.298;5.802;2024-02-14T23:17:21;11.63;;;6.20;;
83682;SDS011;73663;51.298;5.802;2024-02-14T23:22:28;13.52;;;5.53;;
83682;SDS011;73663;51.298;5.802;2024-02-14T23:27:36;13.25;;;5.90;;
83682;SDS011;73663;51.298;5.802;2024-02-14T23:32:43;12.85;;;5.70;;
83682;SDS011;73663;51.298;5.802;2024-02-14T23:37:51;13.15;;;5.60;;
83682;SDS011;73663;51.298;5.802;2024-02-14T23:42:58;13.38;;;7.00;;
83682;SDS011;73663;51.298;5.802;2024-02-14T23:48:06;17.25;;;6.25;;
83682;SDS011;73663;51.298;5.802;2024-02-14T23:53:13;19.40;;;7.28;;
83682;SDS011;73663;51.298;5.802;2024-02-14T23:58:20;15.40;;;6.65;;
